sensor_id;sensor_type;location;lat;lon;timestamp;temperature;humidity
16958;DHT22;8595;52.542;11.974;2022-07-10T00:00:38;15.20;99.90
16958;DHT22;8595;52.542;11.974;2022-07-10T00:03:05;15.20;99.90
16958;DHT22;8595;52.542;11.974;2022-07-10T00:05:33;15.20;99.90
16958;DHT22;8595;52.542;11.974;2022-07-10T00:08:00;15.20;99.90
16958;DHT22;8595;52.542;11.974;2022-07-10T00:10:27;15.20;99.90
16958;DHT22;8595;52.542;11.974;2022-07-10T00:12:55;15.10;99.90
16958;DHT22;8595;52.542;11.974;2022-07-10T00:15:22;15.20;99.90
16958;DHT22;8595;52.542;11.974;2022-07-10T00:17:48;15.30;99.90
16958;DHT22;8595;52.542;11.974;2022-07-10T00:20:16;15.20;99.90
16958;DHT22;8595;52.542;11.974;2022-07-10T00:22:44;15.20;99.90
16958;DHT22;8595;52.542;11.974;2022-07-10T00:25:12;15.30;99.90
16958;DHT22;8595;52.542;11.974;2022-07-10T00:27:39;15.50;99.90
16958;DHT22;8595;52.542;11.974;2022-07-10T00:30:07;15.60;99.90
16958;DHT22;8595;52.542;11.974;2022-07-10T00:32:34;15.40;99.90
16958;DHT22;8595;52.542;11.974;2022-07-10T00:35:00;15.40;99.90
16958;DHT22;8595;52.542;11.974;2022-07-10T00:37:27;15.10;99.90
16958;DHT22;8595;52.542;11.974;2022-07-10T00:39:55;15.00;99.90
16958;DHT22;8595;52.542;11.974;2022-07-10T00:42:22;15.00;99.90
16958;DHT22;8595;52.542;11.974;2022-07-10T00:44:48;14.90;99.90
16958;DHT22;8595;52.542;11.974;2022-07-10T00:47:15;14.70;99.90
16958;DHT22;8595;52.542;11.974;2022-07-10T00:49:45;14.70;99.90
16958;DHT22;8595;52.542;11.974;2022-07-10T00:52:14;14.80;99.90
16958;DHT22;8595;52.542;11.974;2022-07-10T00:54:43;14.60;99.90
16958;DHT22;8595;52.542;11.974;2022-07-10T00:57:13;14.70;99.90
16958;DHT22;8595;52.542;11.974;2022-07-10T00:59:40;14.60;99.90
16958;DHT22;8595;52.542;11.974;2022-07-10T01:02:07;14.60;99.90
16958;DHT22;8595;52.542;11.974;2022-07-10T01:04:34;14.60;99.90
16958;DHT22;8595;52.542;11.974;2022-07-10T01:07:00;14.70;99.90
16958;DHT22;8595;52.542;11.974;2022-07-10T01:09:27;14.60;99.90
16958;DHT22;8595;52.542;11.974;2022-07-10T01:11:55;14.60;99.90
16958;DHT22;8595;52.542;11.974;2022-07-10T01:14:24;14.60;99.90
16958;DHT22;8595;52.542;11.974;2022-07-10T01:16:52;14.60;99.90
16958;DHT22;8595;52.542;11.974;2022-07-10T01:19:18;14.50;99.90
16958;DHT22;8595;52.542;11.974;2022-07-10T01:21:47;14.50;99.90
16958;DHT22;8595;52.542;11.974;2022-07-10T01:24:13;14.40;99.90
16958;DHT22;8595;52.542;11.974;2022-07-10T01:26:40;14.30;99.90
16958;DHT22;8595;52.542;11.974;2022-07-10T01:29:09;14.20;99.90
16958;DHT22;8595;52.542;11.974;2022-07-10T01:31:36;14.40;99.90
16958;DHT22;8595;52.542;11.974;2022-07-10T01:34:06;14.30;99.90
16958;DHT22;8595;52.542;11.974;2022-07-10T01:36:33;14.30;99.90
16958;DHT22;8595;52.542;11.974;2022-07-10T01:39:02;14.30;99.90
16958;DHT22;8595;52.542;11.974;2022-07-10T01:41:28;14.30;99.90
16958;DHT22;8595;52.542;11.974;2022-07-10T01:43:55;14.20;99.90
16958;DHT22;8595;52.542;11.974;2022-07-10T01:46:22;14.10;99.90
16958;DHT22;8595;52.542;11.974;2022-07-10T01:48:49;14.10;99.90
16958;DHT22;8595;52.542;11.974;2022-07-10T01:51:16;14.10;99.90
16958;DHT22;8595;52.542;11.974;2022-07-10T01:53:43;14.10;99.90
16958;DHT22;8595;52.542;11.974;2022-07-10T01:56:12;14.10;99.90
16958;DHT22;8595;52.542;11.974;2022-07-10T01:58:39;14.10;99.90
16958;DHT22;8595;52.542;11.974;2022-07-10T02:01:06;14.10;99.90
16958;DHT22;8595;52.542;11.974;2022-07-10T02:03:33;14.10;99.90
16958;DHT22;8595;52.542;11.974;2022-07-10T02:06:18;14.00;99.90
16958;DHT22;8595;52.542;11.974;2022-07-10T02:08:44;14.10;99.90
16958;DHT22;8595;52.542;11.974;2022-07-10T02:11:12;14.20;99.90
16958;DHT22;8595;52.542;11.974;2022-07-10T02:13:39;14.20;99.90
16958;DHT22;8595;52.542;11.974;2022-07-10T02:16:06;14.20;99.90
16958;DHT22;8595;52.542;11.974;2022-07-10T02:18:33;14.10;99.90
16958;DHT22;8595;52.542;11.974;2022-07-10T02:20:59;14.20;99.90
16958;DHT22;8595;52.542;11.974;2022-07-10T02:23:26;14.20;99.90
16958;DHT22;8595;52.542;11.974;2022-07-10T02:25:53;14.00;99.90
16958;DHT22;8595;52.542;11.974;2022-07-10T02:28:21;14.10;99.90
16958;DHT22;8595;52.542;11.974;2022-07-10T02:30:48;14.10;99.90
16958;DHT22;8595;52.542;11.974;2022-07-10T02:33:14;13.90;99.90
16958;DHT22;8595;52.542;11.974;2022-07-10T02:35:41;14.00;99.90
16958;DHT22;8595;52.542;11.974;2022-07-10T02:38:08;14.10;99.90
16958;DHT22;8595;52.542;11.974;2022-07-10T02:40:35;14.20;99.90
16958;DHT22;8595;52.542;11.974;2022-07-10T02:43:01;14.10;99.90
16958;DHT22;8595;52.542;11.974;2022-07-10T02:45:29;14.10;99.90
16958;DHT22;8595;52.542;11.974;2022-07-10T02:47:56;14.10;99.90
16958;DHT22;8595;52.542;11.974;2022-07-10T02:50:23;14.10;99.90
16958;DHT22;8595;52.542;11.974;2022-07-10T02:52:49;14.10;99.90
16958;DHT22;8595;52.542;11.974;2022-07-10T02:55:16;14.10;99.90
16958;DHT22;8595;52.542;11.974;2022-07-10T02:57:42;14.00;99.90
16958;DHT22;8595;52.542;11.974;2022-07-10T03:00:10;14.00;99.90
16958;DHT22;8595;52.542;11.974;2022-07-10T03:02:38;14.00;99.90
16958;DHT22;8595;52.542;11.974;2022-07-10T03:05:06;14.00;99.90
16958;DHT22;8595;52.542;11.974;2022-07-10T03:07:33;13.90;99.90
16958;DHT22;8595;52.542;11.974;2022-07-10T03:09:59;13.80;99.90
16958;DHT22;8595;52.542;11.974;2022-07-10T03:12:26;14.00;99.90
16958;DHT22;8595;52.542;11.974;2022-07-10T03:14:52;14.00;99.90
16958;DHT22;8595;52.542;11.974;2022-07-10T03:17:19;13.90;99.90
16958;DHT22;8595;52.542;11.974;2022-07-10T03:19:47;13.90;99.90
16958;DHT22;8595;52.542;11.974;2022-07-10T03:22:14;13.90;99.90
16958;DHT22;8595;52.542;11.974;2022-07-10T03:24:40;13.90;99.90
16958;DHT22;8595;52.542;11.974;2022-07-10T03:27:08;14.00;99.90
16958;DHT22;8595;52.542;11.974;2022-07-10T03:29:35;13.90;99.90
16958;DHT22;8595;52.542;11.974;2022-07-10T03:32:02;13.80;99.90
16958;DHT22;8595;52.542;11.974;2022-07-10T03:34:29;13.80;99.90
16958;DHT22;8595;52.542;11.974;2022-07-10T03:36:59;13.90;99.90
16958;DHT22;8595;52.542;11.974;2022-07-10T03:39:26;13.90;99.90
16958;DHT22;8595;52.542;11.974;2022-07-10T03:41:53;13.80;99.90
16958;DHT22;8595;52.542;11.974;2022-07-10T03:44:19;13.60;99.90
16958;DHT22;8595;52.542;11.974;2022-07-10T03:46:46;13.60;99.90
16958;DHT22;8595;52.542;11.974;2022-07-10T03:49:13;13.60;99.90
16958;DHT22;8595;52.542;11.974;2022-07-10T03:51:39;13.70;99.90
16958;DHT22;8595;52.542;11.974;2022-07-10T03:54:07;13.80;99.90
16958;DHT22;8595;52.542;11.974;2022-07-10T03:56:34;13.80;99.90
16958;DHT22;8595;52.542;11.974;2022-07-10T03:59:18;13.80;99.90
16958;DHT22;8595;52.542;11.974;2022-07-10T04:01:44;13.90;99.90
16958;DHT22;8595;52.542;11.974;2022-07-10T04:04:11;14.00;99.90
16958;DHT22;8595;52.542;11.974;2022-07-10T04:06:37;13.90;99.90
16958;DHT22;8595;52.542;11.974;2022-07-10T04:09:04;13.80;99.90
16958;DHT22;8595;52.542;11.974;2022-07-10T04:11:32;13.70;99.90
16958;DHT22;8595;52.542;11.974;2022-07-10T04:13:59;13.70;99.90
16958;DHT22;8595;52.542;11.974;2022-07-10T04:16:25;13.60;99.90
16958;DHT22;8595;52.542;11.974;2022-07-10T04:18:52;13.80;99.90
16958;DHT22;8595;52.542;11.974;2022-07-10T04:21:19;13.80;99.90
16958;DHT22;8595;52.542;11.974;2022-07-10T04:23:45;13.80;99.90
16958;DHT22;8595;52.542;11.974;2022-07-10T04:26:12;13.80;99.90
16958;DHT22;8595;52.542;11.974;2022-07-10T04:28:40;13.80;99.90
16958;DHT22;8595;52.542;11.974;2022-07-10T04:31:07;13.80;99.90
16958;DHT22;8595;52.542;11.974;2022-07-10T04:33:33;13.90;99.90
16958;DHT22;8595;52.542;11.974;2022-07-10T04:36:00;13.90;99.90
16958;DHT22;8595;52.542;11.974;2022-07-10T04:38:26;13.80;99.90
16958;DHT22;8595;52.542;11.974;2022-07-10T04:40:53;13.80;99.90
16958;DHT22;8595;52.542;11.974;2022-07-10T04:43:19;13.90;99.90
16958;DHT22;8595;52.542;11.974;2022-07-10T04:45:48;13.80;99.90
16958;DHT22;8595;52.542;11.974;2022-07-10T04:48:15;13.90;99.90
16958;DHT22;8595;52.542;11.974;2022-07-10T04:50:42;13.90;99.90
16958;DHT22;8595;52.542;11.974;2022-07-10T04:53:08;14.00;99.90
16958;DHT22;8595;52.542;11.974;2022-07-10T04:55:35;14.00;99.90
16958;DHT22;8595;52.542;11.974;2022-07-10T04:58:02;14.10;99.90
16958;DHT22;8595;52.542;11.974;2022-07-10T05:00:28;14.00;99.90
16958;DHT22;8595;52.542;11.974;2022-07-10T05:02:56;13.90;99.90
16958;DHT22;8595;52.542;11.974;2022-07-10T05:05:23;14.00;99.90
16958;DHT22;8595;52.542;11.974;2022-07-10T05:07:49;14.00;99.90
16958;DHT22;8595;52.542;11.974;2022-07-10T05:10:16;14.00;99.90
16958;DHT22;8595;52.542;11.974;2022-07-10T05:12:43;14.10;99.90
16958;DHT22;8595;52.542;11.974;2022-07-10T05:15:10;14.00;99.90
16958;DHT22;8595;52.542;11.974;2022-07-10T05:17:36;14.00;99.90
16958;DHT22;8595;52.542;11.974;2022-07-10T05:20:05;14.10;99.90
16958;DHT22;8595;52.542;11.974;2022-07-10T05:22:32;14.10;99.90
16958;DHT22;8595;52.542;11.974;2022-07-10T05:24:59;14.10;99.90
16958;DHT22;8595;52.542;11.974;2022-07-10T05:27:25;14.20;99.90
16958;DHT22;8595;52.542;11.974;2022-07-10T05:29:52;14.10;99.90
16958;DHT22;8595;52.542;11.974;2022-07-10T05:32:19;14.20;99.90
16958;DHT22;8595;52.542;11.974;2022-07-10T05:34:46;14.30;99.90
16958;DHT22;8595;52.542;11.974;2022-07-10T05:37:14;14.30;99.90
16958;DHT22;8595;52.542;11.974;2022-07-10T05:39:41;14.40;99.90
16958;DHT22;8595;52.542;11.974;2022-07-10T05:42:07;14.40;99.90
16958;DHT22;8595;52.542;11.974;2022-07-10T05:44:34;14.40;99.90
16958;DHT22;8595;52.542;11.974;2022-07-10T05:47:00;14.50;99.90
16958;DHT22;8595;52.542;11.974;2022-07-10T05:49:27;14.50;99.90
16958;DHT22;8595;52.542;11.974;2022-07-10T05:51:54;14.70;99.90
16958;DHT22;8595;52.542;11.974;2022-07-10T05:54:21;14.80;99.90
16958;DHT22;8595;52.542;11.974;2022-07-10T05:56:48;14.80;99.90
16958;DHT22;8595;52.542;11.974;2022-07-10T05:59:26;14.80;99.90
16958;DHT22;8595;52.542;11.974;2022-07-10T06:01:52;14.80;99.90
16958;DHT22;8595;52.542;11.974;2022-07-10T06:04:19;15.00;99.90
16958;DHT22;8595;52.542;11.974;2022-07-10T06:06:45;15.00;99.90
16958;DHT22;8595;52.542;11.974;2022-07-10T06:09:12;14.90;99.90
16958;DHT22;8595;52.542;11.974;2022-07-10T06:11:40;14.80;99.90
16958;DHT22;8595;52.542;11.974;2022-07-10T06:14:09;14.90;99.90
16958;DHT22;8595;52.542;11.974;2022-07-10T06:16:36;15.00;99.90
16958;DHT22;8595;52.542;11.974;2022-07-10T06:19:02;15.10;99.90
16958;DHT22;8595;52.542;11.974;2022-07-10T06:21:29;15.00;99.90
16958;DHT22;8595;52.542;11.974;2022-07-10T06:23:56;14.90;99.90
16958;DHT22;8595;52.542;11.974;2022-07-10T06:26:22;15.00;99.90
16958;DHT22;8595;52.542;11.974;2022-07-10T06:28:50;15.00;99.90
16958;DHT22;8595;52.542;11.974;2022-07-10T06:31:17;15.00;99.90
16958;DHT22;8595;52.542;11.974;2022-07-10T06:33:44;15.10;99.90
16958;DHT22;8595;52.542;11.974;2022-07-10T06:36:10;15.10;99.90
16958;DHT22;8595;52.542;11.974;2022-07-10T06:38:38;15.20;99.90
16958;DHT22;8595;52.542;11.974;2022-07-10T06:41:05;15.30;99.90
16958;DHT22;8595;52.542;11.974;2022-07-10T06:43:31;15.30;99.90
16958;DHT22;8595;52.542;11.974;2022-07-10T06:45:59;15.30;99.90
16958;DHT22;8595;52.542;11.974;2022-07-10T06:48:27;15.40;99.90
16958;DHT22;8595;52.542;11.974;2022-07-10T06:50:54;15.30;99.90
16958;DHT22;8595;52.542;11.974;2022-07-10T06:53:20;15.30;99.90
16958;DHT22;8595;52.542;11.974;2022-07-10T06:55:49;15.30;99.90
16958;DHT22;8595;52.542;11.974;2022-07-10T06:58:16;15.50;99.90
16958;DHT22;8595;52.542;11.974;2022-07-10T07:00:43;15.60;99.90
16958;DHT22;8595;52.542;11.974;2022-07-10T07:03:11;15.70;99.90
16958;DHT22;8595;52.542;11.974;2022-07-10T07:05:37;16.00;99.90
16958;DHT22;8595;52.542;11.974;2022-07-10T07:08:04;16.00;99.90
16958;DHT22;8595;52.542;11.974;2022-07-10T07:10:31;16.20;99.90
16958;DHT22;8595;52.542;11.974;2022-07-10T07:12:57;16.20;99.90
16958;DHT22;8595;52.542;11.974;2022-07-10T07:15:25;16.20;99.90
16958;DHT22;8595;52.542;11.974;2022-07-10T07:17:51;16.00;99.90
16958;DHT22;8595;52.542;11.974;2022-07-10T07:20:35;15.80;99.90
16958;DHT22;8595;52.542;11.974;2022-07-10T07:23:19;16.00;99.90
16958;DHT22;8595;52.542;11.974;2022-07-10T07:25:45;16.10;99.90
16958;DHT22;8595;52.542;11.974;2022-07-10T07:28:13;16.20;99.90
16958;DHT22;8595;52.542;11.974;2022-07-10T07:30:40;16.10;99.90
16958;DHT22;8595;52.542;11.974;2022-07-10T07:33:07;16.10;99.90
16958;DHT22;8595;52.542;11.974;2022-07-10T07:35:35;16.00;99.90
16958;DHT22;8595;52.542;11.974;2022-07-10T07:38:02;16.20;99.90
16958;DHT22;8595;52.542;11.974;2022-07-10T07:40:29;16.20;99.90
16958;DHT22;8595;52.542;11.974;2022-07-10T07:42:56;16.20;99.90
16958;DHT22;8595;52.542;11.974;2022-07-10T07:45:23;16.10;99.90
16958;DHT22;8595;52.542;11.974;2022-07-10T07:47:51;16.10;99.90
16958;DHT22;8595;52.542;11.974;2022-07-10T07:50:19;16.20;99.90
16958;DHT22;8595;52.542;11.974;2022-07-10T07:52:48;16.20;99.90
16958;DHT22;8595;52.542;11.974;2022-07-10T07:55:17;16.30;99.90
16958;DHT22;8595;52.542;11.974;2022-07-10T07:57:44;16.40;99.90
16958;DHT22;8595;52.542;11.974;2022-07-10T08:00:12;16.40;99.90
16958;DHT22;8595;52.542;11.974;2022-07-10T08:02:39;16.30;99.90
16958;DHT22;8595;52.542;11.974;2022-07-10T08:05:07;16.50;99.90
16958;DHT22;8595;52.542;11.974;2022-07-10T08:07:35;16.70;99.90
16958;DHT22;8595;52.542;11.974;2022-07-10T08:10:04;16.90;99.90
16958;DHT22;8595;52.542;11.974;2022-07-10T08:12:31;17.00;99.90
16958;DHT22;8595;52.542;11.974;2022-07-10T08:14:58;16.90;99.90
16958;DHT22;8595;52.542;11.974;2022-07-10T08:17:25;16.90;99.90
16958;DHT22;8595;52.542;11.974;2022-07-10T08:19:52;17.10;99.90
16958;DHT22;8595;52.542;11.974;2022-07-10T08:22:19;17.30;99.90
16958;DHT22;8595;52.542;11.974;2022-07-10T08:24:45;17.30;99.90
16958;DHT22;8595;52.542;11.974;2022-07-10T08:27:13;17.60;99.90
16958;DHT22;8595;52.542;11.974;2022-07-10T08:29:41;17.90;99.90
16958;DHT22;8595;52.542;11.974;2022-07-10T08:32:07;18.10;99.90
16958;DHT22;8595;52.542;11.974;2022-07-10T08:34:34;18.10;99.90
16958;DHT22;8595;52.542;11.974;2022-07-10T08:37:01;18.00;99.90
16958;DHT22;8595;52.542;11.974;2022-07-10T08:39:28;18.00;99.90
16958;DHT22;8595;52.542;11.974;2022-07-10T08:41:55;17.90;99.90
16958;DHT22;8595;52.542;11.974;2022-07-10T08:44:23;17.50;99.90
16958;DHT22;8595;52.542;11.974;2022-07-10T08:46:49;17.70;99.90
16958;DHT22;8595;52.542;11.974;2022-07-10T08:49:16;17.90;99.90
16958;DHT22;8595;52.542;11.974;2022-07-10T08:51:48;18.00;99.90
16958;DHT22;8595;52.542;11.974;2022-07-10T08:54:17;18.30;99.90
16958;DHT22;8595;52.542;11.974;2022-07-10T08:56:44;18.20;99.90
16958;DHT22;8595;52.542;11.974;2022-07-10T08:59:12;18.50;99.90
16958;DHT22;8595;52.542;11.974;2022-07-10T09:01:41;18.60;99.90
16958;DHT22;8595;52.542;11.974;2022-07-10T09:04:16;18.40;99.90
16958;DHT22;8595;52.542;11.974;2022-07-10T09:06:44;18.40;99.90
16958;DHT22;8595;52.542;11.974;2022-07-10T09:09:11;18.60;99.90
16958;DHT22;8595;52.542;11.974;2022-07-10T09:11:38;18.90;99.90
16958;DHT22;8595;52.542;11.974;2022-07-10T09:14:07;19.20;99.90
16958;DHT22;8595;52.542;11.974;2022-07-10T09:16:35;19.10;99.90
16958;DHT22;8595;52.542;11.974;2022-07-10T09:19:18;18.70;99.90
16958;DHT22;8595;52.542;11.974;2022-07-10T09:21:45;19.50;99.90
16958;DHT22;8595;52.542;11.974;2022-07-10T09:24:12;19.90;99.90
16958;DHT22;8595;52.542;11.974;2022-07-10T09:26:40;20.30;99.90
16958;DHT22;8595;52.542;11.974;2022-07-10T09:29:08;20.60;99.90
16958;DHT22;8595;52.542;11.974;2022-07-10T09:31:52;21.50;99.90
16958;DHT22;8595;52.542;11.974;2022-07-10T09:34:38;22.40;99.90
16958;DHT22;8595;52.542;11.974;2022-07-10T09:37:22;22.40;99.90
16958;DHT22;8595;52.542;11.974;2022-07-10T09:39:57;21.80;99.90
16958;DHT22;8595;52.542;11.974;2022-07-10T09:42:28;21.20;99.90
16958;DHT22;8595;52.542;11.974;2022-07-10T09:45:17;21.20;99.90
16958;DHT22;8595;52.542;11.974;2022-07-10T09:47:47;21.90;99.90
16958;DHT22;8595;52.542;11.974;2022-07-10T09:50:23;22.00;99.90
16958;DHT22;8595;52.542;11.974;2022-07-10T09:52:51;21.70;99.90
16958;DHT22;8595;52.542;11.974;2022-07-10T09:55:20;20.90;99.90
16958;DHT22;8595;52.542;11.974;2022-07-10T09:57:55;21.00;99.90
16958;DHT22;8595;52.542;11.974;2022-07-10T10:00:27;20.90;99.90
16958;DHT22;8595;52.542;11.974;2022-07-10T10:02:56;21.50;99.90
16958;DHT22;8595;52.542;11.974;2022-07-10T10:05:32;21.90;99.90
16958;DHT22;8595;52.542;11.974;2022-07-10T10:08:03;21.80;99.90
16958;DHT22;8595;52.542;11.974;2022-07-10T10:10:32;22.00;99.90
16958;DHT22;8595;52.542;11.974;2022-07-10T10:13:03;22.20;99.90
16958;DHT22;8595;52.542;11.974;2022-07-10T10:15:35;22.90;99.90
16958;DHT22;8595;52.542;11.974;2022-07-10T10:18:02;23.60;99.90
16958;DHT22;8595;52.542;11.974;2022-07-10T10:20:31;23.50;99.90
16958;DHT22;8595;52.542;11.974;2022-07-10T10:23:04;23.00;99.90
16958;DHT22;8595;52.542;11.974;2022-07-10T10:28:36;22.90;99.90
16958;DHT22;8595;52.542;11.974;2022-07-10T10:31:03;23.40;99.90
16958;DHT22;8595;52.542;11.974;2022-07-10T10:33:43;23.40;99.90
16958;DHT22;8595;52.542;11.974;2022-07-10T10:36:13;23.20;99.90
16958;DHT22;8595;52.542;11.974;2022-07-10T10:39:03;22.60;99.90
16958;DHT22;8595;52.542;11.974;2022-07-10T10:41:33;21.90;99.90
16958;DHT22;8595;52.542;11.974;2022-07-10T10:44:24;22.30;99.90
16958;DHT22;8595;52.542;11.974;2022-07-10T10:46:59;22.40;99.90
16958;DHT22;8595;52.542;11.974;2022-07-10T10:49:53;22.50;99.90
16958;DHT22;8595;52.542;11.974;2022-07-10T10:52:23;22.50;99.90
16958;DHT22;8595;52.542;11.974;2022-07-10T10:55:04;22.90;99.90
16958;DHT22;8595;52.542;11.974;2022-07-10T10:57:42;23.20;99.90
16958;DHT22;8595;52.542;11.974;2022-07-10T11:00:28;23.90;99.90
16958;DHT22;8595;52.542;11.974;2022-07-10T11:03:12;24.00;99.90
16958;DHT22;8595;52.542;11.974;2022-07-10T11:05:44;23.20;99.90
16958;DHT22;8595;52.542;11.974;2022-07-10T11:08:12;22.80;99.90
16958;DHT22;8595;52.542;11.974;2022-07-10T11:10:41;23.20;99.90
16958;DHT22;8595;52.542;11.974;2022-07-10T11:13:09;23.50;99.90
16958;DHT22;8595;52.542;11.974;2022-07-10T11:15:37;24.00;99.00
16958;DHT22;8595;52.542;11.974;2022-07-10T11:18:08;24.70;99.90
16958;DHT22;8595;52.542;11.974;2022-07-10T11:20:36;25.10;98.20
16958;DHT22;8595;52.542;11.974;2022-07-10T11:23:17;24.80;97.00
16958;DHT22;8595;52.542;11.974;2022-07-10T11:25:49;24.70;97.60
16958;DHT22;8595;52.542;11.974;2022-07-10T11:28:35;25.00;95.80
16958;DHT22;8595;52.542;11.974;2022-07-10T11:31:06;25.20;95.10
16958;DHT22;8595;52.542;11.974;2022-07-10T11:33:39;25.10;95.00
16958;DHT22;8595;52.542;11.974;2022-07-10T11:36:10;24.60;95.40
16958;DHT22;8595;52.542;11.974;2022-07-10T11:42:02;25.40;95.10
16958;DHT22;8595;52.542;11.974;2022-07-10T11:44:28;25.00;92.90
16958;DHT22;8595;52.542;11.974;2022-07-10T11:46:55;24.60;93.50
16958;DHT22;8595;52.542;11.974;2022-07-10T11:52:46;25.30;94.40
16958;DHT22;8595;52.542;11.974;2022-07-10T11:58:20;25.80;91.80
16958;DHT22;8595;52.542;11.974;2022-07-10T12:01:05;25.80;91.00
16958;DHT22;8595;52.542;11.974;2022-07-10T12:06:03;24.50;92.30
16958;DHT22;8595;52.542;11.974;2022-07-10T12:08:41;23.90;94.30
16958;DHT22;8595;52.542;11.974;2022-07-10T12:11:11;23.30;94.00
16958;DHT22;8595;52.542;11.974;2022-07-10T12:20:14;25.00;94.00
16958;DHT22;8595;52.542;11.974;2022-07-10T12:22:41;24.60;94.50
16958;DHT22;8595;52.542;11.974;2022-07-10T12:25:09;25.10;93.10
16958;DHT22;8595;52.542;11.974;2022-07-10T13:31:23;24.30;91.70
16958;DHT22;8595;52.542;11.974;2022-07-10T13:33:49;24.20;91.20
16958;DHT22;8595;52.542;11.974;2022-07-10T13:36:16;23.90;91.30
16958;DHT22;8595;52.542;11.974;2022-07-10T13:38:43;24.20;91.40
16958;DHT22;8595;52.542;11.974;2022-07-10T13:41:09;24.70;90.10
16958;DHT22;8595;52.542;11.974;2022-07-10T13:43:36;25.30;88.50
16958;DHT22;8595;52.542;11.974;2022-07-10T13:46:04;26.00;90.50
16958;DHT22;8595;52.542;11.974;2022-07-10T13:48:32;26.10;85.70
16958;DHT22;8595;52.542;11.974;2022-07-10T13:51:03;26.10;85.90
16958;DHT22;8595;52.542;11.974;2022-07-10T13:53:32;25.10;83.10
16958;DHT22;8595;52.542;11.974;2022-07-10T13:55:58;24.50;85.40
16958;DHT22;8595;52.542;11.974;2022-07-10T13:58:33;24.10;86.80
16958;DHT22;8595;52.542;11.974;2022-07-10T14:01:07;24.10;86.70
16958;DHT22;8595;52.542;11.974;2022-07-10T14:03:40;23.90;87.80
16958;DHT22;8595;52.542;11.974;2022-07-10T14:06:29;23.90;87.40
16958;DHT22;8595;52.542;11.974;2022-07-10T14:09:01;23.90;89.70
16958;DHT22;8595;52.542;11.974;2022-07-10T14:12:50;23.50;86.50
16958;DHT22;8595;52.542;11.974;2022-07-10T14:16:45;23.30;89.80
16958;DHT22;8595;52.542;11.974;2022-07-10T15:07:45;23.50;90.00
16958;DHT22;8595;52.542;11.974;2022-07-10T15:10:12;23.40;90.00
16958;DHT22;8595;52.542;11.974;2022-07-10T15:12:41;23.90;90.20
16958;DHT22;8595;52.542;11.974;2022-07-10T15:15:10;24.40;89.10
16958;DHT22;8595;52.542;11.974;2022-07-10T15:17:36;24.00;89.50
16958;DHT22;8595;52.542;11.974;2022-07-10T15:20:04;23.50;89.60
16958;DHT22;8595;52.542;11.974;2022-07-10T15:22:31;23.10;90.30
16958;DHT22;8595;52.542;11.974;2022-07-10T15:24:59;22.80;90.40
16958;DHT22;8595;52.542;11.974;2022-07-10T15:51:02;24.00;90.60
16958;DHT22;8595;52.542;11.974;2022-07-10T15:53:29;24.40;90.30
16958;DHT22;8595;52.542;11.974;2022-07-10T15:55:56;24.40;90.80
16958;DHT22;8595;52.542;11.974;2022-07-10T15:58:22;24.20;88.70
16958;DHT22;8595;52.542;11.974;2022-07-10T16:00:49;23.50;89.30
16958;DHT22;8595;52.542;11.974;2022-07-10T16:03:15;23.30;90.00
16958;DHT22;8595;52.542;11.974;2022-07-10T16:05:42;23.50;88.90
16958;DHT22;8595;52.542;11.974;2022-07-10T16:08:10;23.70;90.20
16958;DHT22;8595;52.542;11.974;2022-07-10T16:10:37;23.50;90.10
16958;DHT22;8595;52.542;11.974;2022-07-10T16:13:03;23.30;89.80
16958;DHT22;8595;52.542;11.974;2022-07-10T16:15:30;23.30;90.30
16958;DHT22;8595;52.542;11.974;2022-07-10T16:17:56;23.20;91.10
16958;DHT22;8595;52.542;11.974;2022-07-10T16:20:23;22.80;90.10
16958;DHT22;8595;52.542;11.974;2022-07-10T16:22:50;22.80;91.00
16958;DHT22;8595;52.542;11.974;2022-07-10T16:25:18;22.50;90.60
16958;DHT22;8595;52.542;11.974;2022-07-10T16:28:02;22.60;90.50
16958;DHT22;8595;52.542;11.974;2022-07-10T16:30:29;23.20;91.30
16958;DHT22;8595;52.542;11.974;2022-07-10T16:32:56;23.20;90.80
16958;DHT22;8595;52.542;11.974;2022-07-10T16:35:23;23.10;91.20
16958;DHT22;8595;52.542;11.974;2022-07-10T16:37:49;23.50;90.70
16958;DHT22;8595;52.542;11.974;2022-07-10T16:40:17;23.80;89.30
16958;DHT22;8595;52.542;11.974;2022-07-10T16:42:44;23.90;89.90
16958;DHT22;8595;52.542;11.974;2022-07-10T16:45:10;24.00;88.70
16958;DHT22;8595;52.542;11.974;2022-07-10T16:47:37;24.00;89.90
16958;DHT22;8595;52.542;11.974;2022-07-10T16:50:04;24.40;88.40
16958;DHT22;8595;52.542;11.974;2022-07-10T16:52:31;24.40;89.50
16958;DHT22;8595;52.542;11.974;2022-07-10T16:54:58;24.00;88.70
16958;DHT22;8595;52.542;11.974;2022-07-10T16:57:26;23.40;90.00
16958;DHT22;8595;52.542;11.974;2022-07-10T16:59:52;22.70;90.40
16958;DHT22;8595;52.542;11.974;2022-07-10T17:02:19;22.40;90.90
16958;DHT22;8595;52.542;11.974;2022-07-10T17:04:45;22.90;92.10
16958;DHT22;8595;52.542;11.974;2022-07-10T17:07:12;23.00;90.40
16958;DHT22;8595;52.542;11.974;2022-07-10T17:09:41;22.60;90.70
16958;DHT22;8595;52.542;11.974;2022-07-10T17:12:08;22.30;91.40
16958;DHT22;8595;52.542;11.974;2022-07-10T17:14:38;22.20;91.60
16958;DHT22;8595;52.542;11.974;2022-07-10T17:17:09;22.10;92.40
16958;DHT22;8595;52.542;11.974;2022-07-10T17:19:40;22.00;93.50
16958;DHT22;8595;52.542;11.974;2022-07-10T17:22:16;21.70;93.00
16958;DHT22;8595;52.542;11.974;2022-07-10T17:24:59;21.60;93.90
16958;DHT22;8595;52.542;11.974;2022-07-10T17:27:26;21.50;93.80
16958;DHT22;8595;52.542;11.974;2022-07-10T19:08:37;19.00;99.90
16958;DHT22;8595;52.542;11.974;2022-07-10T19:11:05;18.90;99.90
16958;DHT22;8595;52.542;11.974;2022-07-10T19:13:33;18.90;99.90
16958;DHT22;8595;52.542;11.974;2022-07-10T19:15:59;18.80;99.90
16958;DHT22;8595;52.542;11.974;2022-07-10T19:18:26;18.80;99.90
16958;DHT22;8595;52.542;11.974;2022-07-10T19:20:53;18.80;99.90
16958;DHT22;8595;52.542;11.974;2022-07-10T19:23:20;18.70;99.90
16958;DHT22;8595;52.542;11.974;2022-07-10T19:25:48;18.60;99.90
16958;DHT22;8595;52.542;11.974;2022-07-10T19:28:17;18.50;99.90
16958;DHT22;8595;52.542;11.974;2022-07-10T19:30:46;18.40;99.90
16958;DHT22;8595;52.542;11.974;2022-07-10T19:33:13;18.30;99.90
16958;DHT22;8595;52.542;11.974;2022-07-10T19:35:40;18.40;99.90
16958;DHT22;8595;52.542;11.974;2022-07-10T19:38:06;18.30;99.90
16958;DHT22;8595;52.542;11.974;2022-07-10T19:40:33;18.20;99.90
16958;DHT22;8595;52.542;11.974;2022-07-10T19:43:01;18.10;99.90
16958;DHT22;8595;52.542;11.974;2022-07-10T19:45:28;18.00;99.90
16958;DHT22;8595;52.542;11.974;2022-07-10T19:47:54;17.90;99.90
16958;DHT22;8595;52.542;11.974;2022-07-10T19:50:22;17.80;99.90
16958;DHT22;8595;52.542;11.974;2022-07-10T19:52:50;17.70;99.90
16958;DHT22;8595;52.542;11.974;2022-07-10T19:55:17;17.60;99.90
16958;DHT22;8595;52.542;11.974;2022-07-10T19:57:43;17.50;99.90